Time;durP1;ratioP1;P1;durP2;ratioP2;P2;SDS_P1;SDS_P2;PMS_P1;PMS_P2;Temp;Humidity;BMP_temperature;BMP_pressure;BME280_temperature;BME280_humidity;BME280_pressure;Samples;Min_cycle;Max_cycle;Signal;HPM_P1;HPM_P2
2021/12/28 00:02:33;;;;;;;118.20;32.58;;;;;;;-7.40;87.18;98590.06;8473691;27;20047;-76
2021/12/28 00:06:34;;;;;;;111.53;32.42;;;;;;;-7.37;86.78;98584.44;8489669;27;20047;-74
2021/12/28 00:10:35;;;;;;;111.60;30.40;;;;;;;-7.46;86.82;98588.31;8469818;27;20627;-76
2021/12/28 00:14:38;;;;;;;126.57;34.38;;;;;;;-7.46;87.11;98585.69;8498255;27;20466;-76
2021/12/28 00:18:39;;;;;;;108.45;30.17;;;;;;;-7.44;86.99;98583.63;8489814;27;20040;-76
2021/12/28 00:22:40;;;;;;;121.75;33.75;;;;;;;-7.42;87.20;98575.56;8471392;27;20574;-75
2021/12/28 00:26:43;;;;;;;113.97;32.72;;;;;;;-7.44;87.21;98578.38;8489158;27;20055;-74
2021/12/28 00:30:45;;;;;;;113.03;30.95;;;;;;;-7.46;87.08;98575.19;8498003;27;20065;-75
2021/12/28 00:34:45;;;;;;;116.72;33.30;;;;;;;-7.42;86.81;98576.38;8462442;27;20502;-75
2021/12/28 00:38:46;;;;;;;132.40;35.90;;;;;;;-7.38;86.91;98580.19;8472083;27;20043;-75
2021/12/28 00:42:47;;;;;;;132.50;34.75;;;;;;;-7.45;86.80;98581.22;8482693;27;20520;-75
2021/12/28 00:46:48;;;;;;;140.80;34.55;;;;;;;-7.46;87.08;98574.38;8462139;27;20136;-75
2021/12/28 00:50:52;;;;;;;125.25;35.80;;;;;;;-7.42;87.18;98576.38;8476138;27;20059;-76
2021/12/28 00:54:52;;;;;;;136.63;36.22;;;;;;;-7.40;86.89;98573.56;8456937;27;20043;-75
2021/12/28 00:58:53;;;;;;;133.10;36.13;;;;;;;-7.42;87.26;98560.63;8486869;27;20126;-74
2021/12/28 01:02:56;;;;;;;129.82;30.48;;;;;;;-7.34;86.71;98555.16;8487822;27;20099;-76
2021/12/28 01:06:56;;;;;;;134.38;34.97;;;;;;;-7.34;87.01;98551.72;8443272;27;20053;-75
2021/12/28 01:10:58;;;;;;;129.80;38.38;;;;;;;-7.35;86.92;98545.66;8486846;27;20138;-76
2021/12/28 01:14:58;;;;;;;133.25;35.90;;;;;;;-7.38;87.34;98540.84;8464882;27;20040;-75
2021/12/28 01:18:59;;;;;;;135.07;39.40;;;;;;;-7.40;87.25;98542.84;8493930;27;20070;-75
2021/12/28 01:23:01;;;;;;;143.38;36.53;;;;;;;-7.39;87.38;98536.59;8489879;27;20047;-76
2021/12/28 01:27:02;;;;;;;144.30;40.03;;;;;;;-7.40;87.48;98537.63;8494313;27;20043;-75
2021/12/28 01:31:03;;;;;;;134.05;36.17;;;;;;;-7.39;87.51;98544.47;8480906;27;20514;-75
2021/12/28 01:35:08;;;;;;;134.80;35.85;;;;;;;-7.37;87.45;98547.72;8493333;27;20067;-75
2021/12/28 01:39:12;;;;;;;128.75;35.85;;;;;;;-7.38;87.25;98551.34;8486525;27;20043;-75
2021/12/28 01:43:15;;;;;;;145.13;36.97;;;;;;;-7.37;87.28;98555.56;8460314;27;20043;-75
2021/12/28 01:47:17;;;;;;;137.85;36.97;;;;;;;-7.39;87.79;98557.59;8486885;27;20046;-76
2021/12/28 01:51:20;;;;;;;128.27;34.20;;;;;;;-7.38;87.81;98556.59;8486850;27;20047;-75
2021/12/28 01:55:21;;;;;;;127.55;35.10;;;;;;;-7.35;87.39;98556.16;8468356;27;20156;-76
2021/12/28 01:59:22;;;;;;;139.95;38.33;;;;;;;-7.33;87.19;98559.38;8453534;27;20036;-75
2021/12/28 02:03:25;;;;;;;146.15;36.97;;;;;;;-7.38;87.89;98555.78;8467711;27;20417;-75
2021/12/28 02:07:25;;;;;;;136.50;38.78;;;;;;;-7.40;87.85;98548.09;8481358;27;20043;-75
2021/12/28 02:11:26;;;;;;;130.20;37.20;;;;;;;-7.36;87.75;98544.09;8484414;27;20106;-75
2021/12/28 02:15:27;;;;;;;127.45;36.45;;;;;;;-7.36;87.85;98549.31;8482329;27;20076;-75
2021/12/28 02:19:27;;;;;;;137.02;34.40;;;;;;;-7.33;87.94;98548.91;8478194;27;20513;-75
2021/12/28 02:23:28;;;;;;;135.18;35.80;;;;;;;-7.34;87.64;98536.78;8470011;27;20043;-75
2021/12/28 02:27:29;;;;;;;124.15;35.50;;;;;;;-7.36;87.85;98533.59;8487148;28;20039;-75
2021/12/28 02:31:30;;;;;;;136.95;36.83;;;;;;;-7.34;87.69;98515.81;8417388;28;20383;-76
2021/12/28 02:35:31;;;;;;;131.80;35.75;;;;;;;-7.29;87.50;98517.78;8472300;28;20047;-76
2021/12/28 02:39:32;;;;;;;137.43;36.03;;;;;;;-7.29;87.72;98502.88;8494682;28;20100;-75
2021/12/28 02:43:33;;;;;;;126.15;36.40;;;;;;;-7.26;87.77;98507.72;8486355;28;20387;-75
2021/12/28 02:47:35;;;;;;;136.32;35.13;;;;;;;-7.28;87.95;98509.72;8494589;28;20100;-75
2021/12/28 02:51:36;;;;;;;136.45;40.78;;;;;;;-7.27;87.98;98527.09;8440997;28;20035;-75
2021/12/28 02:55:38;;;;;;;129.75;34.55;;;;;;;-7.29;88.18;98509.94;8492734;28;20058;-75
2021/12/28 02:59:49;;;;;;;139.25;37.00;;;;;;;-7.31;88.27;98510.16;8475100;28;20050;-75
2021/12/28 03:03:53;;;;;;;137.27;37.38;;;;;;;-7.30;88.17;98511.78;8470250;28;20046;-75
2021/12/28 03:07:54;;;;;;;132.52;36.08;;;;;;;-7.36;88.45;98504.72;8494396;28;20039;-76
2021/12/28 03:11:55;;;;;;;155.40;38.15;;;;;;;-7.36;88.99;98507.34;8485137;28;20050;-75
2021/12/28 03:15:56;;;;;;;136.88;37.00;;;;;;;-7.37;89.05;98495.25;8486200;28;20411;-74
2021/12/28 03:19:57;;;;;;;142.48;37.85;;;;;;;-7.35;88.99;98498.44;8494026;28;20058;-76
2021/12/28 03:23:58;;;;;;;144.60;36.50;;;;;;;-7.29;88.69;98488.94;8486406;28;20494;-75
2021/12/28 03:28:02;;;;;;;137.07;37.28;;;;;;;-7.29;88.67;98487.13;8493336;28;20047;-75
2021/12/28 03:32:03;;;;;;;144.07;38.17;;;;;;;-7.29;88.66;98497.63;8488272;27;20118;-75
2021/12/28 03:36:06;;;;;;;149.23;37.25;;;;;;;-7.26;88.83;98491.97;8446076;27;20047;-75
2021/12/28 03:40:09;;;;;;;134.38;38.33;;;;;;;-7.27;88.54;98495.59;8482957;27;20043;-75
2021/12/28 03:44:10;;;;;;;137.55;38.58;;;;;;;-7.32;89.04;98498.03;8499765;27;20092;-76
2021/12/28 03:48:11;;;;;;;132.70;37.65;;;;;;;-7.38;89.47;98504.13;8482836;27;20047;-75
2021/12/28 03:52:12;;;;;;;145.18;38.25;;;;;;;-7.33;89.13;98496.44;8476776;27;20504;-75
2021/12/28 03:56:13;;;;;;;132.10;36.55;;;;;;;-7.36;88.97;98481.13;8474649;27;20421;-76
2021/12/28 04:00:16;;;;;;;163.05;40.38;;;;;;;-7.29;88.88;98487.13;8469627;27;20047;-75
2021/12/28 04:04:17;;;;;;;158.82;40.38;;;;;;;-7.32;88.75;98482.31;8467192;27;20051;-76
2021/12/28 04:08:22;;;;;;;142.88;39.20;;;;;;;-7.28;89.19;98478.25;8487585;27;20043;-76
2021/12/28 04:12:22;;;;;;;159.65;40.53;;;;;;;-7.23;88.91;98466.31;8490388;27;20413;-76
2021/12/28 04:16:23;;;;;;;152.13;38.80;;;;;;;-7.19;88.75;98464.91;8371155;28;20055;-75
2021/12/28 04:20:24;;;;;;;150.43;38.65;;;;;;;-7.20;89.06;98458.84;8385260;28;20133;-76
2021/12/28 04:24:25;;;;;;;147.38;39.63;;;;;;;-7.15;88.82;98445.09;8374440;28;20052;-75
2021/12/28 04:28:26;;;;;;;146.73;38.53;;;;;;;-7.10;88.55;98432.13;8318607;28;20093;-74
2021/12/28 04:32:26;;;;;;;138.27;38.70;;;;;;;-7.05;88.59;98442.81;8392966;28;20051;-75
2021/12/28 04:36:27;;;;;;;151.13;39.75;;;;;;;-7.05;88.67;98434.94;8367931;28;20049;-75
2021/12/28 04:40:28;;;;;;;142.95;38.58;;;;;;;-6.99;88.66;98444.59;8387927;28;20056;-74
2021/12/28 04:44:29;;;;;;;143.98;39.13;;;;;;;-7.00;88.60;98437.72;8376607;28;20140;-74
2021/12/28 04:48:30;;;;;;;161.20;40.15;;;;;;;-6.98;88.40;98425.97;8380154;28;20127;-75
2021/12/28 04:52:35;;;;;;;159.23;39.83;;;;;;;-6.94;88.46;98421.13;8426954;27;20047;-76
2021/12/28 04:56:35;;;;;;;144.73;39.13;;;;;;;-6.90;88.62;98414.44;8485052;27;20055;-75
2021/12/28 05:00:36;;;;;;;133.57;38.55;;;;;;;-6.91;88.46;98415.44;8478962;27;20142;-74
2021/12/28 05:04:37;;;;;;;133.02;36.22;;;;;;;-6.95;88.90;98406.38;8427778;27;20470;-75
2021/12/28 05:08:40;;;;;;;134.60;39.13;;;;;;;-6.91;88.86;98389.19;8488250;27;20122;-75
2021/12/28 05:12:41;;;;;;;151.63;40.03;;;;;;;-6.92;88.67;98393.63;8478142;27;20047;-76
2021/12/28 05:16:41;;;;;;;148.27;41.33;;;;;;;-6.96;88.80;98381.16;8496749;27;20119;-75
2021/12/28 05:20:43;;;;;;;139.30;39.50;;;;;;;-7.03;89.28;98381.19;8480379;27;20405;-76
2021/12/28 05:24:44;;;;;;;156.70;42.28;;;;;;;-7.03;89.56;98391.69;8492627;27;20043;-75
2021/12/28 05:28:45;;;;;;;150.82;40.55;;;;;;;-7.07;90.21;98394.97;8475031;27;20043;-76
2021/12/28 05:32:46;;;;;;;155.50;43.03;;;;;;;-7.06;90.16;98401.81;8484092;27;20126;-75
2021/12/28 05:36:46;;;;;;;146.80;40.83;;;;;;;-7.01;89.92;98400.16;8482771;27;20104;-75
2021/12/28 05:40:47;;;;;;;135.48;37.58;;;;;;;-7.01;89.47;98394.13;8495434;27;20494;-76
2021/12/28 05:44:48;;;;;;;145.73;37.83;;;;;;;-6.97;89.91;98400.53;8495723;27;20039;-76
2021/12/28 05:48:49;;;;;;;145.85;39.42;;;;;;;-6.96;89.33;98375.91;8468231;27;20123;-75
2021/12/28 05:52:49;;;;;;;144.73;40.13;;;;;;;-6.96;89.26;98378.53;8489125;27;21792;-75
2021/12/28 05:56:50;;;;;;;147.52;40.10;;;;;;;-6.94;89.33;98364.19;8484287;27;20050;-76
2021/12/28 06:00:51;;;;;;;141.60;39.60;;;;;;;-6.97;89.37;98353.28;8481125;27;20043;-75
2021/12/28 06:04:52;;;;;;;145.85;38.45;;;;;;;-6.93;89.56;98344.00;8495082;27;20051;-75
2021/12/28 06:08:53;;;;;;;141.13;39.25;;;;;;;-6.92;89.80;98342.94;8476867;27;20067;-75
2021/12/28 06:12:54;;;;;;;150.30;41.58;;;;;;;-6.84;90.08;98337.44;8480704;27;20095;-74
2021/12/28 06:16:54;;;;;;;139.00;38.90;;;;;;;-6.81;90.53;98337.00;8469499;27;20170;-75
2021/12/28 06:20:56;;;;;;;145.90;38.90;;;;;;;-6.76;90.61;98339.78;8491811;27;20133;-75
2021/12/28 06:24:57;;;;;;;135.20;37.90;;;;;;;-6.69;90.92;98340.53;8467087;27;20043;-76
2021/12/28 06:28:58;;;;;;;154.77;41.03;;;;;;;-6.67;90.99;98338.50;8487465;28;20478;-75
2021/12/28 06:32:59;;;;;;;168.93;48.95;;;;;;;-6.55;91.33;98341.19;8493094;28;20133;-74
2021/12/28 06:37:00;;;;;;;144.80;44.25;;;;;;;-6.49;91.38;98335.06;8489047;28;20092;-74
2021/12/28 06:41:01;;;;;;;150.60;42.47;;;;;;;-6.45;91.48;98331.78;8492486;28;20031;-74
2021/12/28 06:45:03;;;;;;;149.13;40.55;;;;;;;-6.41;91.63;98343.47;8487215;28;20577;-75
2021/12/28 06:49:04;;;;;;;150.07;43.05;;;;;;;-6.38;91.38;98346.66;8435922;28;20412;-74
2021/12/28 06:53:05;;;;;;;155.07;39.22;;;;;;;-6.31;91.42;98331.66;8464060;28;20043;-75
2021/12/28 06:57:08;;;;;;;160.98;42.97;;;;;;;-6.31;91.07;98336.91;8488700;28;20051;-78
2021/12/28 07:01:08;;;;;;;124.55;37.22;;;;;;;-6.27;91.17;98331.00;8482698;28;20043;-75
2021/12/28 07:05:11;;;;;;;150.98;43.25;;;;;;;-6.25;91.14;98333.41;8490195;28;20039;-75
2021/12/28 07:09:11;;;;;;;149.98;42.83;;;;;;;-6.20;91.32;98328.28;8472570;27;20119;-75
2021/12/28 07:13:12;;;;;;;142.02;41.28;;;;;;;-6.14;91.39;98330.84;8493086;27;20062;-75
2021/12/28 07:17:14;;;;;;;158.32;43.78;;;;;;;-6.08;91.65;98321.28;8490806;27;20054;-75
2021/12/28 07:21:15;;;;;;;152.65;41.88;;;;;;;-6.04;91.72;98322.44;8462063;27;20188;-75
2021/12/28 07:25:16;;;;;;;160.80;44.25;;;;;;;-5.97;91.29;98327.63;8493843;27;20154;-74
2021/12/28 07:29:17;;;;;;;142.90;42.15;;;;;;;-5.90;91.52;98323.88;8460806;27;20055;-75
2021/12/28 07:33:17;;;;;;;157.43;43.63;;;;;;;-5.85;91.35;98321.34;8458347;27;20040;-75
2021/12/28 07:37:18;;;;;;;160.80;45.38;;;;;;;-5.81;91.48;98304.09;8467232;27;20063;-74
2021/12/28 07:41:19;;;;;;;152.35;45.90;;;;;;;-5.77;91.32;98297.38;8488124;27;20043;-75
2021/12/28 07:45:20;;;;;;;152.55;44.80;;;;;;;-5.75;91.43;98284.78;8461654;27;20047;-75
2021/12/28 07:49:21;;;;;;;145.60;44.55;;;;;;;-5.70;91.38;98277.03;8480944;27;20178;-74
2021/12/28 07:53:22;;;;;;;148.60;42.95;;;;;;;-5.62;91.51;98276.72;8484873;27;20129;-74
2021/12/28 07:57:22;;;;;;;156.13;43.55;;;;;;;-5.57;91.26;98282.09;8464541;27;20113;-73
2021/12/28 08:01:23;;;;;;;155.88;44.28;;;;;;;-5.50;91.29;98283.84;8482519;27;20074;-74
2021/12/28 08:05:24;;;;;;;145.52;41.10;;;;;;;-5.46;91.34;98303.41;8478485;27;20044;-74
2021/12/28 08:09:25;;;;;;;151.43;44.88;;;;;;;-5.43;91.43;98303.75;8485571;27;20043;-74
2021/12/28 08:13:26;;;;;;;154.05;44.80;;;;;;;-5.38;91.45;98310.97;8472962;27;20071;-75
2021/12/28 08:17:28;;;;;;;147.93;42.38;;;;;;;-5.30;91.62;98308.03;8489750;27;20047;-75
2021/12/28 08:21:29;;;;;;;140.65;41.65;;;;;;;-5.26;91.25;98296.00;8487403;27;20077;-76
2021/12/28 08:25:30;;;;;;;144.45;42.67;;;;;;;-5.18;91.13;98306.22;8482898;27;20461;-75
2021/12/28 08:29:31;;;;;;;138.50;41.88;;;;;;;-5.06;90.89;98304.38;8482481;27;20139;-75
2021/12/28 08:33:32;;;;;;;149.07;42.47;;;;;;;-4.98;90.51;98301.41;8465053;27;20134;-74
2021/12/28 08:37:33;;;;;;;142.77;42.40;;;;;;;-4.92;90.16;98289.97;8479894;27;20069;-75
2021/12/28 08:41:34;;;;;;;132.88;42.85;;;;;;;-4.84;90.08;98292.25;8482568;27;20054;-74
2021/12/28 08:45:36;;;;;;;149.20;44.13;;;;;;;-4.76;89.82;98299.03;8482512;27;20063;-74
2021/12/28 08:49:37;;;;;;;153.45;45.90;;;;;;;-4.59;89.58;98309.63;8483321;27;20067;-74
2021/12/28 08:53:37;;;;;;;159.60;47.40;;;;;;;-4.53;89.31;98298.19;8462880;27;20607;-74
2021/12/28 08:57:39;;;;;;;151.82;49.47;;;;;;;-4.48;89.14;98290.38;8480765;27;20099;-74
2021/12/28 09:01:40;;;;;;;162.18;47.88;;;;;;;-4.51;88.88;98285.59;8489892;27;20108;-74
2021/12/28 09:05:41;;;;;;;152.13;46.25;;;;;;;-4.45;88.76;98284.66;8487625;27;20139;-74
2021/12/28 09:09:43;;;;;;;164.82;49.42;;;;;;;-4.37;89.00;98276.38;8476617;27;20063;-73
2021/12/28 09:13:43;;;;;;;206.10;64.15;;;;;;;-4.25;88.54;98269.25;8470367;27;20046;-75
2021/12/28 09:17:44;;;;;;;194.43;59.17;;;;;;;-4.24;88.29;98276.13;8463775;27;20062;-74
2021/12/28 09:21:46;;;;;;;257.75;78.72;;;;;;;-4.26;88.42;98268.44;8479794;27;20601;-75
2021/12/28 09:25:46;;;;;;;211.05;70.35;;;;;;;-4.20;88.15;98258.81;8458026;27;20252;-74
2021/12/28 09:29:47;;;;;;;220.25;72.03;;;;;;;-4.15;88.40;98258.91;8470143;27;20101;-74
2021/12/28 09:33:48;;;;;;;267.42;83.93;;;;;;;-4.05;88.12;98259.09;8493268;27;20055;-75
2021/12/28 09:37:49;;;;;;;302.77;93.20;;;;;;;-3.98;88.13;98265.03;8472591;27;20063;-74
2021/12/28 09:41:51;;;;;;;239.45;73.65;;;;;;;-3.77;87.87;98249.56;8494188;27;20087;-74
2021/12/28 09:45:53;;;;;;;185.60;58.17;;;;;;;-3.72;88.09;98253.09;8483307;27;20043;-74
2021/12/28 09:49:53;;;;;;;176.98;55.85;;;;;;;-3.59;87.75;98252.00;8480275;27;20047;-74
2021/12/28 09:53:57;;;;;;;169.02;50.90;;;;;;;-3.49;87.86;98268.03;8495551;27;20418;-76
2021/12/28 09:57:59;;;;;;;173.50;52.55;;;;;;;-3.26;87.51;98257.28;8460540;28;20124;-74
2021/12/28 10:02:06;;;;;;;167.85;51.78;;;;;;;-3.09;86.86;98236.97;8462789;27;20054;-74
2021/12/28 10:06:21;;;;;;;169.20;53.40;;;;;;;-2.97;87.24;98238.72;8486536;27;20053;-74
2021/12/28 10:10:27;;;;;;;189.55;55.58;;;;;;;-2.82;86.65;98231.00;8468659;27;20413;-75
2021/12/28 10:14:29;;;;;;;202.52;66.55;;;;;;;-2.75;86.12;98231.63;8495261;27;20065;-75
2021/12/28 10:18:30;;;;;;;204.25;66.97;;;;;;;-2.64;86.07;98244.72;8482373;27;20035;-75
2021/12/28 10:22:46;;;;;;;184.05;56.35;;;;;;;-2.56;85.86;98238.22;8454529;27;20130;-75
2021/12/28 10:27:14;;;;;;;175.43;58.28;;;;;;;-2.53;85.57;98239.56;8494312;27;20103;-74
2021/12/28 10:31:22;;;;;;;168.27;53.05;;;;;;;-2.47;85.58;98212.94;8472751;28;20051;-73
2021/12/28 10:35:28;;;;;;;171.13;53.13;;;;;;;-2.34;85.00;98204.66;8481772;28;20062;-74
2021/12/28 10:39:46;;;;;;;167.57;55.28;;;;;;;-2.32;84.83;98199.91;8465934;28;20050;-73
2021/12/28 10:43:50;;;;;;;168.52;53.58;;;;;;;-2.35;84.93;98200.41;8493380;27;20619;-73
2021/12/28 10:47:52;;;;;;;175.85;56.50;;;;;;;-2.39;84.96;98193.22;8502208;27;20131;-75
2021/12/28 10:51:53;;;;;;;207.70;66.18;;;;;;;-2.29;85.14;98178.25;8467324;27;20531;-74
2021/12/28 10:55:56;;;;;;;285.48;95.47;;;;;;;-2.20;84.91;98165.38;8501864;27;20067;-74
2021/12/28 11:00:26;;;;;;;218.48;73.88;;;;;;;-2.24;84.77;98165.09;8491138;27;20043;-76
2021/12/28 11:04:37;;;;;;;210.52;70.95;;;;;;;-2.19;85.14;98151.91;8492864;27;20467;-75
2021/12/28 11:08:39;;;;;;;203.75;61.35;;;;;;;-2.24;85.03;98153.72;8485711;27;20119;-75
2021/12/28 11:12:44;;;;;;;197.48;64.72;;;;;;;-2.17;85.21;98144.50;8464313;27;20061;-75
2021/12/28 11:17:00;;;;;;;207.02;62.40;;;;;;;-2.11;85.26;98126.06;8490890;27;20146;-75
2021/12/28 11:21:21;;;;;;;177.60;56.60;;;;;;;-1.92;84.60;98114.06;8489171;27;20470;-73
2021/12/28 11:25:22;;;;;;;169.55;53.50;;;;;;;-1.86;84.66;98113.06;8495348;27;21009;-74
2021/12/28 11:29:32;;;;;;;157.80;50.30;;;;;;;-1.84;84.57;98095.06;8498872;27;20051;-75
2021/12/28 11:33:56;;;;;;;171.82;53.85;;;;;;;-1.67;84.12;98101.03;8475047;27;20051;-75
2021/12/28 11:37:57;;;;;;;177.70;57.53;;;;;;;-1.58;83.62;98099.50;8412952;28;20057;-75
2021/12/28 11:41:58;;;;;;;185.23;60.90;;;;;;;-1.54;83.45;98089.19;8445282;28;20176;-75
2021/12/28 11:45:59;;;;;;;219.65;71.78;;;;;;;-1.48;83.42;98083.66;8463261;28;20051;-74
2021/12/28 11:50:00;;;;;;;198.60;62.13;;;;;;;-1.49;83.37;98068.84;8458402;28;20041;-74
2021/12/28 11:54:05;;;;;;;177.32;57.03;;;;;;;-1.43;83.35;98065.16;8433897;28;20067;-76
2021/12/28 11:58:06;;;;;;;164.63;52.45;;;;;;;-1.39;83.46;98060.16;8459764;28;20056;-76
2021/12/28 12:02:09;;;;;;;164.38;52.83;;;;;;;-1.35;83.40;98051.44;8442168;28;20063;-74
2021/12/28 12:06:10;;;;;;;160.77;55.10;;;;;;;-1.35;83.29;98061.22;8462991;28;20055;-75
2021/12/28 12:10:13;;;;;;;175.82;57.38;;;;;;;-1.35;83.64;98046.16;8430610;28;20106;-75
2021/12/28 12:14:14;;;;;;;175.93;56.67;;;;;;;-1.32;83.86;98028.94;8447118;28;20491;-75
2021/12/28 12:18:19;;;;;;;171.85;54.53;;;;;;;-1.32;83.71;98032.38;8414048;28;20063;-78
2021/12/28 12:22:34;;;;;;;162.27;51.28;;;;;;;-1.29;83.47;98023.94;8413508;28;20108;-75
2021/12/28 12:26:37;;;;;;;183.50;57.53;;;;;;;-1.30;83.86;98017.03;8439152;28;20048;-75
2021/12/28 12:30:49;;;;;;;187.98;62.55;;;;;;;-1.32;84.52;98019.13;8399922;28;20106;-75
2021/12/28 12:34:49;;;;;;;179.43;61.15;;;;;;;-1.27;84.12;98027.09;8467128;27;20398;-76
2021/12/28 12:38:54;;;;;;;167.57;55.40;;;;;;;-1.19;84.29;98038.25;8490064;27;20034;-80
2021/12/28 12:43:09;;;;;;;162.43;55.47;;;;;;;-1.19;84.42;98032.97;8463619;27;20044;-75
2021/12/28 12:47:10;;;;;;;163.25;53.35;;;;;;;-1.16;84.01;98043.06;8490119;27;20054;-75
2021/12/28 12:51:23;;;;;;;162.38;49.90;;;;;;;-1.21;84.43;98032.41;8488756;27;20490;-74
2021/12/28 12:55:34;;;;;;;148.00;49.78;;;;;;;-1.23;84.22;98026.59;8472651;27;20050;-75
2021/12/28 12:59:41;;;;;;;148.55;49.35;;;;;;;-1.24;84.56;98025.00;8485901;27;20475;-76
2021/12/28 13:03:42;;;;;;;163.15;52.50;;;;;;;-1.24;84.64;98014.41;8482273;27;20048;-77
2021/12/28 13:07:43;;;;;;;151.05;50.80;;;;;;;-1.24;84.46;98014.41;8477647;27;20043;-76
2021/12/28 13:11:44;;;;;;;157.13;52.13;;;;;;;-1.22;85.08;98007.00;8489479;27;20134;-72
2021/12/28 13:15:44;;;;;;;161.98;54.10;;;;;;;-1.11;84.92;98013.94;8480804;27;20067;-73
2021/12/28 13:20:05;;;;;;;160.90;52.50;;;;;;;-1.02;85.14;98017.66;8487294;27;20051;-72
2021/12/28 13:24:09;;;;;;;154.20;52.97;;;;;;;-0.99;84.76;98003.88;8484493;27;20043;-72
2021/12/28 13:28:11;;;;;;;165.43;51.50;;;;;;;-0.97;84.77;98004.44;8445550;27;20055;-72
2021/12/28 13:32:16;;;;;;;144.07;49.67;;;;;;;-0.91;84.92;98000.75;8469009;27;20046;-72
2021/12/28 13:36:18;;;;;;;146.30;50.50;;;;;;;-0.84;85.01;97993.31;8485229;27;20073;-72
2021/12/28 13:40:24;;;;;;;151.05;52.92;;;;;;;-0.86;84.73;98004.22;8483612;27;20043;-71
2021/12/28 13:44:25;;;;;;;159.43;53.03;;;;;;;-0.84;85.09;97980.06;8481438;27;20051;-73
2021/12/28 13:48:33;;;;;;;150.70;52.33;;;;;;;-0.87;85.45;97988.56;8472704;27;20100;-71
2021/12/28 13:52:47;;;;;;;141.93;47.53;;;;;;;-0.88;85.84;97971.06;8425880;27;20172;-70
2021/12/28 13:56:51;;;;;;;243.05;76.97;;;;;;;-0.86;85.46;97958.34;8459638;27;20050;-71
2021/12/28 14:00:59;;;;;;;219.52;77.78;;;;;;;-0.89;86.05;97958.84;8485492;27;20451;-70
2021/12/28 14:05:00;;;;;;;176.65;56.13;;;;;;;-0.87;85.63;97956.75;8473022;27;20067;-71
2021/12/28 14:09:04;;;;;;;160.50;55.78;;;;;;;-0.82;85.91;97964.72;8465370;27;20059;-71
2021/12/28 14:13:12;;;;;;;159.45;52.47;;;;;;;-0.81;86.58;97961.00;8496351;27;20047;-71
2021/12/28 14:17:15;;;;;;;154.63;52.38;;;;;;;-0.77;86.48;97961.25;8474517;27;20074;-71
2021/12/28 14:21:30;;;;;;;151.70;50.78;;;;;;;-0.73;86.44;97952.53;8474916;27;20471;-72
2021/12/28 14:25:31;;;;;;;153.82;52.53;;;;;;;-0.65;86.62;97959.97;8460692;27;20059;-71
2021/12/28 14:29:33;;;;;;;178.68;59.70;;;;;;;-0.61;86.85;97965.53;8486692;27;20043;-71
2021/12/28 14:33:48;;;;;;;156.93;57.13;;;;;;;-0.59;86.93;97964.22;8478815;28;20639;-71
2021/12/28 14:37:49;;;;;;;150.68;50.72;;;;;;;-0.56;87.30;97963.69;8487314;28;20495;-71
2021/12/28 14:42:05;;;;;;;163.25;57.60;;;;;;;-0.59;87.01;97950.97;8469009;28;20417;-71
2021/12/28 14:46:08;;;;;;;153.73;50.47;;;;;;;-0.63;87.84;97947.22;8469898;28;20055;-71
2021/12/28 14:50:24;;;;;;;164.07;54.78;;;;;;;-0.64;87.51;97953.59;8399352;28;20056;-71
2021/12/28 14:54:25;;;;;;;144.30;51.85;;;;;;;-0.63;88.13;97941.91;8385988;28;20052;-71
2021/12/28 14:58:28;;;;;;;201.32;67.38;;;;;;;-0.67;88.63;97951.47;8391341;28;20447;-73
2021/12/28 15:02:29;;;;;;;187.50;61.90;;;;;;;-0.70;88.40;97957.31;8389716;28;20052;-73
2021/12/28 15:06:30;;;;;;;169.48;58.42;;;;;;;-0.74;88.65;97956.22;8391774;28;20060;-72
2021/12/28 15:10:33;;;;;;;159.93;55.20;;;;;;;-0.78;88.88;97965.78;8391902;28;20138;-73
2021/12/28 15:14:33;;;;;;;170.73;55.95;;;;;;;-0.78;89.40;97980.88;8388381;28;20598;-72
2021/12/28 15:18:35;;;;;;;158.50;53.13;;;;;;;-0.78;89.07;97976.38;8388310;28;20049;-73
2021/12/28 15:22:38;;;;;;;163.75;54.60;;;;;;;-0.87;89.38;97983.25;8391053;28;20057;-72
2021/12/28 15:26:38;;;;;;;160.23;52.15;;;;;;;-0.86;89.39;97968.94;8433918;27;20495;-72
2021/12/28 15:30:41;;;;;;;161.30;52.38;;;;;;;-0.94;89.51;97969.44;8476116;27;20146;-72
2021/12/28 15:34:42;;;;;;;169.50;53.58;;;;;;;-0.97;89.54;97957.53;8478139;27;20071;-73
2021/12/28 15:38:45;;;;;;;165.93;54.45;;;;;;;-1.01;90.18;97960.97;8497218;27;20062;-72
2021/12/28 15:42:47;;;;;;;153.00;52.78;;;;;;;-1.05;90.22;97955.38;8478733;27;20140;-72
2021/12/28 15:46:48;;;;;;;167.25;57.10;;;;;;;-1.07;90.12;97956.72;8497844;27;20050;-72
2021/12/28 15:50:49;;;;;;;158.82;52.05;;;;;;;-1.08;90.31;97949.81;8496730;27;20042;-72
2021/12/28 15:54:50;;;;;;;157.32;52.17;;;;;;;-1.10;90.94;97947.41;8474030;27;20414;-72
2021/12/28 15:58:51;;;;;;;154.90;51.80;;;;;;;-1.09;91.00;97948.22;8473784;27;20028;-72
2021/12/28 16:02:52;;;;;;;160.32;53.17;;;;;;;-1.05;91.60;97917.47;8493713;27;20050;-72
2021/12/28 16:06:54;;;;;;;163.73;53.70;;;;;;;-1.02;92.04;97909.03;8492607;27;20134;-72
2021/12/28 16:10:55;;;;;;;155.30;51.28;;;;;;;-0.95;91.94;97918.28;8493939;27;20493;-73
2021/12/28 16:14:56;;;;;;;153.73;52.53;;;;;;;-0.90;92.10;97904.28;8493266;27;20039;-72
2021/12/28 16:18:57;;;;;;;151.20;50.35;;;;;;;-0.87;92.43;97906.41;8492282;27;20047;-72
2021/12/28 16:22:58;;;;;;;142.73;48.30;;;;;;;-0.90;92.24;97893.69;8494866;27;20063;-72
2021/12/28 16:26:59;;;;;;;146.35;49.60;;;;;;;-0.92;92.83;97874.59;8493412;27;20047;-70
2021/12/28 16:31:00;;;;;;;146.65;48.78;;;;;;;-0.90;92.44;97883.09;8436936;27;20045;-70
2021/12/28 16:35:01;;;;;;;140.93;47.90;;;;;;;-0.94;92.24;97866.09;8493789;27;20055;-71
2021/12/28 16:39:02;;;;;;;144.35;47.55;;;;;;;-1.00;92.75;97867.16;8492214;27;20050;-70
2021/12/28 16:43:06;;;;;;;131.07;46.60;;;;;;;-1.02;93.68;97863.97;8493222;27;20387;-70
2021/12/28 16:47:06;;;;;;;135.60;47.15;;;;;;;-0.98;93.22;97859.75;8485862;27;20075;-72
2021/12/28 16:51:07;;;;;;;143.00;47.60;;;;;;;-0.95;92.69;97853.91;8450674;27;20411;-70
2021/12/28 16:55:09;;;;;;;143.88;45.67;;;;;;;-0.95;93.18;97853.91;8450365;27;20491;-72
2021/12/28 16:59:10;;;;;;;138.60;45.78;;;;;;;-0.96;93.48;97853.13;8482204;27;20047;-71
2021/12/28 17:03:11;;;;;;;145.52;48.45;;;;;;;-0.98;93.67;97849.13;8466952;27;20092;-72
2021/12/28 17:07:12;;;;;;;136.30;46.72;;;;;;;-1.03;94.52;97857.09;8488973;27;20043;-71
2021/12/28 17:11:13;;;;;;;153.15;50.45;;;;;;;-1.07;94.97;97846.22;8474162;27;20156;-71
2021/12/28 17:15:14;;;;;;;149.57;49.35;;;;;;;-1.11;95.68;97860.28;8485972;27;20039;-71
2021/12/28 17:19:15;;;;;;;147.10;48.60;;;;;;;-1.13;95.98;97846.47;8484375;27;20055;-71
2021/12/28 17:23:16;;;;;;;147.93;48.33;;;;;;;-1.11;96.47;97849.69;8490176;27;20050;-71
2021/12/28 17:27:18;;;;;;;141.00;48.10;;;;;;;-1.14;96.25;97834.28;8487283;27;20126;-71
2021/12/28 17:31:19;;;;;;;141.95;49.38;;;;;;;-1.15;96.18;97817.59;8488903;27;20046;-71
2021/12/28 17:35:21;;;;;;;144.98;48.22;;;;;;;-1.13;96.20;97817.34;8489401;27;20079;-71
2021/12/28 17:39:23;;;;;;;152.82;50.78;;;;;;;-1.18;96.54;97827.94;8451280;27;20403;-71
2021/12/28 17:43:29;;;;;;;145.32;51.85;;;;;;;-1.18;96.34;97827.94;8491778;27;20062;-70
2021/12/28 17:47:30;;;;;;;148.32;50.17;;;;;;;-1.19;96.48;97831.63;8491790;27;20039;-71
2021/12/28 17:51:36;;;;;;;155.82;53.50;;;;;;;-1.22;96.27;97832.19;8489170;27;20057;-75
2021/12/28 17:55:37;;;;;;;147.15;51.95;;;;;;;-1.27;96.54;97829.53;8491022;27;20574;-75
2021/12/28 17:59:38;;;;;;;152.35;51.88;;;;;;;-1.33;96.50;97826.88;8488964;27;20109;-74
2021/12/28 18:03:40;;;;;;;164.38;54.55;;;;;;;-1.36;96.61;97816.78;8451897;27;20585;-74
2021/12/28 18:07:41;;;;;;;151.80;53.85;;;;;;;-1.41;96.85;97814.13;8490802;27;20050;-74
2021/12/28 18:11:43;;;;;;;153.45;53.20;;;;;;;-1.42;96.79;97817.81;8469103;27;20137;-75
2021/12/28 18:15:46;;;;;;;155.45;53.67;;;;;;;-1.46;97.06;97826.56;8487839;27;20130;-75
2021/12/28 18:19:48;;;;;;;164.25;57.65;;;;;;;-1.50;97.15;97831.59;8486409;27;20498;-74
2021/12/28 18:23:52;;;;;;;166.50;58.38;;;;;;;-1.52;97.40;97828.41;8487861;27;20486;-79